Time,TemperatureF,DewpointF,PressureIn,WindDirection,WindDirectionDegrees,WindSpeedMPH,WindSpeedGustMPH,Humidity,HourlyPrecipIn,Conditions,Clouds,dailyrainin,SolarRadiationWatts/m^2,SoftwareType,DateUTC
2014-01-26 00:04:00,40.9,38.0,30.05,WSW,239,1.0,3.0,90,0.00,,,0.00,16,weatherlink.com 1.10,2014-01-26 06:04:00,
2014-01-26 00:19:00,41.1,38.0,30.05,WSW,239,1.0,4.0,90,0.00,,,0.00,16,weatherlink.com 1.10,2014-01-26 06:19:00,
2014-01-26 00:34:00,41.1,38.0,30.04,West,265,3.0,4.0,90,0.00,,,0.00,16,weatherlink.com 1.10,2014-01-26 06:34:00,
2014-01-26 00:49:00,41.1,38.0,30.03,West,259,2.0,3.0,89,0.00,,,0.00,16,weatherlink.com 1.10,2014-01-26 06:49:00,
2014-01-26 01:04:00,41.2,38.0,30.03,West,274,4.0,4.0,88,0.00,,,0.00,16,weatherlink.com 1.10,2014-01-26 07:04:00,
2014-01-26 01:20:00,41.4,38.0,30.02,West,275,2.0,4.0,88,0.00,,,0.00,16,weatherlink.com 1.10,2014-01-26 07:20:00,
2014-01-26 01:34:00,41.3,38.0,30.02,WSW,257,0.0,5.0,87,0.00,,,0.00,16,weatherlink.com 1.10,2014-01-26 07:34:00,
2014-01-26 01:49:00,41.0,37.0,30.02,West,263,2.0,4.0,87,0.00,,,0.00,16,weatherlink.com 1.10,2014-01-26 07:49:00,
2014-01-26 02:04:00,41.0,38.0,30.02,WSW,250,2.0,4.0,88,0.00,,,0.00,16,weatherlink.com 1.10,2014-01-26 08:04:00,
2014-01-26 02:19:00,40.9,37.0,30.02,West,263,2.0,4.0,87,0.00,,,0.00,16,weatherlink.com 1.10,2014-01-26 08:19:00,
2014-01-26 02:34:00,40.9,37.0,30.01,West,265,2.0,4.0,87,0.00,,,0.00,16,weatherlink.com 1.10,2014-01-26 08:34:00,
2014-01-26 02:49:00,40.9,37.0,30.01,West,265,0.0,3.0,86,0.00,,,0.00,16,weatherlink.com 1.10,2014-01-26 08:49:00,
2014-01-26 03:04:00,40.7,37.0,30.01,West,266,0.0,2.0,87,0.00,,,0.00,16,weatherlink.com 1.10,2014-01-26 09:04:00,
2014-01-26 03:19:00,40.6,37.0,30.01,West,266,1.0,3.0,87,0.00,,,0.00,16,weatherlink.com 1.10,2014-01-26 09:19:00,
2014-01-26 03:34:00,40.0,37.0,30.01,West,266,0.0,1.0,88,0.00,,,0.00,16,weatherlink.com 1.10,2014-01-26 09:34:00,
2014-01-26 03:49:00,39.5,37.0,30.01,West,266,0.0,1.0,89,0.00,,,0.00,16,weatherlink.com 1.10,2014-01-26 09:49:00,
2014-01-26 04:05:00,39.4,37.0,30.01,West,266,0.0,2.0,89,0.00,,,0.00,16,weatherlink.com 1.10,2014-01-26 10:05:00,
2014-01-26 04:20:00,39.3,36.0,30.01,West,266,0.0,1.0,89,0.00,,,0.00,16,weatherlink.com 1.10,2014-01-26 10:20:00,
2014-01-26 04:35:00,39.6,37.0,30.01,West,266,0.0,2.0,89,0.00,,,0.00,16,weatherlink.com 1.10,2014-01-26 10:35:00,
2014-01-26 04:50:00,39.7,37.0,30.02,West,266,0.0,-999.0,88,1.09,,,0.00,16,weatherlink.com 1.10,2014-01-26 10:50:00,
2014-01-26 05:05:00,39.8,37.0,30.03,West,266,0.0,2.0,88,0.00,,,0.00,16,weatherlink.com 1.10,2014-01-26 11:05:00,
2014-01-26 05:20:00,40.0,37.0,30.03,West,271,0.0,2.0,87,0.00,,,0.00,16,weatherlink.com 1.10,2014-01-26 11:20:00,
2014-01-26 05:35:00,40.0,37.0,30.02,West,270,0.0,1.0,87,0.00,,,0.00,16,weatherlink.com 1.10,2014-01-26 11:35:00,
2014-01-26 05:50:00,40.0,37.0,30.03,West,270,0.0,1.0,87,0.00,,,0.00,16,weatherlink.com 1.10,2014-01-26 11:50:00,
2014-01-26 06:05:00,40.0,37.0,30.03,West,271,0.0,1.0,87,0.00,,,0.00,16,weatherlink.com 1.10,2014-01-26 12:05:00,
2014-01-26 06:20:00,40.0,37.0,30.03,West,270,0.0,0.0,87,0.00,,,0.00,16,weatherlink.com 1.10,2014-01-26 12:20:00,
2014-01-26 06:35:00,39.8,37.0,30.03,West,270,0.0,2.0,88,0.00,,,0.00,16,weatherlink.com 1.10,2014-01-26 12:35:00,
2014-01-26 06:50:00,39.6,36.0,30.04,West,270,0.0,3.0,88,0.00,,,0.00,18,weatherlink.com 1.10,2014-01-26 12:50:00,
2014-01-26 07:05:00,39.5,36.0,30.04,West,270,1.0,1.0,88,0.00,,,0.00,9,weatherlink.com 1.10,2014-01-26 13:05:00,
2014-01-26 07:20:00,39.6,36.0,30.05,West,271,0.0,2.0,88,0.00,,,0.00,25,weatherlink.com 1.10,2014-01-26 13:20:00,
2014-01-26 07:35:00,39.7,37.0,30.05,West,270,1.0,4.0,88,0.00,,,0.00,46,weatherlink.com 1.10,2014-01-26 13:35:00,
2014-01-26 07:50:00,40.1,37.0,30.05,West,270,1.0,2.0,88,0.00,,,0.00,72,weatherlink.com 1.10,2014-01-26 13:50:00,
2014-01-26 08:05:00,40.9,37.0,30.05,SSW,193,1.0,2.0,86,0.00,,,0.00,79,weatherlink.com 1.10,2014-01-26 14:05:00,
2014-01-26 08:20:00,42.0,37.0,30.04,West,271,0.0,2.0,83,0.00,,,0.00,105,weatherlink.com 1.10,2014-01-26 14:20:00,
2014-01-26 08:35:00,43.0,38.0,30.04,West,271,0.0,1.0,81,0.00,,,0.00,158,weatherlink.com 1.10,2014-01-26 14:35:00,
2014-01-26 08:50:00,44.8,38.0,30.06,West,271,1.0,3.0,76,0.00,,,0.00,229,weatherlink.com 1.10,2014-01-26 14:50:00,
2014-01-26 09:05:00,46.5,39.0,30.06,West,270,0.0,2.0,74,0.00,,,0.00,251,weatherlink.com 1.10,2014-01-26 15:05:00,
2014-01-26 09:20:00,47.4,38.0,30.07,West,270,0.0,3.0,70,0.00,,,0.00,185,weatherlink.com 1.10,2014-01-26 15:20:00,
2014-01-26 09:35:00,48.4,37.0,30.07,West,270,0.0,4.0,66,0.00,,,0.00,172,weatherlink.com 1.10,2014-01-26 15:35:00,
2014-01-26 09:50:00,49.1,38.0,30.07,West,270,1.0,2.0,65,0.00,,,0.00,216,weatherlink.com 1.10,2014-01-26 15:50:00,
2014-01-26 10:05:00,50.0,37.0,30.07,West,270,1.0,2.0,62,0.00,,,0.00,232,weatherlink.com 1.10,2014-01-26 16:05:00,
2014-01-26 10:20:00,50.7,35.0,30.06,West,269,2.0,4.0,56,0.00,,,0.00,188,weatherlink.com 1.10,2014-01-26 16:20:00,
2014-01-26 10:35:00,51.4,36.0,30.06,West,269,3.0,3.0,56,0.00,,,0.00,158,weatherlink.com 1.10,2014-01-26 16:35:00,
2014-01-26 10:51:00,51.7,36.0,30.04,South,190,0.0,3.0,55,0.00,,,0.00,153,weatherlink.com 1.10,2014-01-26 16:51:00,
2014-01-26 11:06:00,52.7,36.0,30.04,WSW,239,2.0,4.0,53,0.00,,,0.00,118,weatherlink.com 1.10,2014-01-26 17:06:00,
2014-01-26 11:21:00,53.0,36.0,30.04,SSW,196,0.0,4.0,53,0.00,,,0.00,149,weatherlink.com 1.10,2014-01-26 17:21:00,
2014-01-26 11:36:00,53.1,36.0,30.02,South,190,0.0,5.0,53,0.00,,,0.00,139,weatherlink.com 1.10,2014-01-26 17:36:00,
2014-01-26 11:51:00,53.3,35.0,30.02,SSW,199,0.0,4.0,51,0.00,,,0.00,84,weatherlink.com 1.10,2014-01-26 17:51:00,
2014-01-26 12:06:00,53.3,35.0,30.00,SSW,198,2.0,3.0,51,0.00,,,0.00,123,weatherlink.com 1.10,2014-01-26 18:06:00,
2014-01-26 12:21:00,54.2,36.0,29.98,South,180,1.0,4.0,50,0.00,,,0.00,271,weatherlink.com 1.10,2014-01-26 18:21:00,
2014-01-26 12:36:00,54.5,35.0,29.97,ENE,75,2.0,7.0,48,0.00,,,0.00,183,weatherlink.com 1.10,2014-01-26 18:36:00,
2014-01-26 12:51:00,55.0,35.0,29.97,SSW,213,3.0,5.0,48,0.00,,,0.00,193,weatherlink.com 1.10,2014-01-26 18:51:00,
2014-01-26 13:06:00,54.7,36.0,29.96,SE,134,1.0,9.0,50,0.00,,,0.00,218,weatherlink.com 1.10,2014-01-26 19:06:00,
2014-01-26 13:21:00,55.4,37.0,29.95,SE,137,0.0,6.0,51,0.00,,,0.00,190,weatherlink.com 1.10,2014-01-26 19:21:00,
2014-01-26 13:36:00,56.3,39.0,29.94,SE,140,5.0,7.0,53,0.00,,,0.00,186,weatherlink.com 1.10,2014-01-26 19:36:00,
2014-01-26 13:51:00,56.5,40.0,29.94,South,180,0.0,8.0,55,0.00,,,0.00,113,weatherlink.com 1.10,2014-01-26 19:51:00,
2014-01-26 14:06:00,56.4,41.0,29.93,SE,138,8.0,8.0,57,0.00,,,0.00,116,weatherlink.com 1.10,2014-01-26 20:06:00,
2014-01-26 14:21:00,58.4,41.0,29.93,South,184,5.0,9.0,53,0.00,,,0.00,70,weatherlink.com 1.10,2014-01-26 20:21:00,
2014-01-26 14:36:00,59.4,43.0,29.93,SSW,211,3.0,10.0,54,0.00,,,0.00,44,weatherlink.com 1.10,2014-01-26 20:36:00,
2014-01-26 14:51:00,59.1,42.0,29.92,SSW,199,2.0,10.0,53,0.00,,,0.00,72,weatherlink.com 1.10,2014-01-26 20:51:00,
2014-01-26 15:06:00,59.1,42.0,29.91,SSW,200,4.0,8.0,54,0.00,,,0.00,98,weatherlink.com 1.10,2014-01-26 21:06:00,
2014-01-26 15:21:00,57.7,44.0,29.91,SE,142,1.0,10.0,61,0.00,,,0.00,53,weatherlink.com 1.10,2014-01-26 21:21:00,
2014-01-26 15:36:00,56.4,45.0,29.91,ESE,119,5.0,11.0,65,0.00,,,0.00,54,weatherlink.com 1.10,2014-01-26 21:36:00,
2014-01-26 15:51:00,54.8,44.0,29.91,SE,142,4.0,11.0,68,0.00,,,0.00,65,weatherlink.com 1.10,2014-01-26 21:51:00,
2014-01-26 16:06:00,54.1,45.0,29.91,ESE,120,2.0,10.0,71,0.00,,,0.00,60,weatherlink.com 1.10,2014-01-26 22:06:00,
2014-01-26 16:21:00,54.2,45.0,29.91,SE,128,4.0,7.0,71,0.00,,,0.00,35,weatherlink.com 1.10,2014-01-26 22:21:00,
2014-01-26 16:36:00,54.0,44.0,29.91,SE,132,1.0,6.0,70,0.00,,,0.00,30,weatherlink.com 1.10,2014-01-26 22:36:00,
2014-01-26 16:51:00,54.0,46.0,29.90,ESE,113,1.0,5.0,73,0.00,,,0.00,25,weatherlink.com 1.10,2014-01-26 22:51:00,
2014-01-26 17:06:00,54.0,46.0,29.90,SSE,152,3.0,7.0,73,0.00,,,0.00,16,weatherlink.com 1.10,2014-01-26 23:06:00,
2014-01-26 17:21:00,53.6,46.0,29.91,South,178,0.0,5.0,74,0.00,,,0.00,5,weatherlink.com 1.10,2014-01-26 23:21:00,
2014-01-26 17:37:00,53.1,45.0,29.91,South,175,2.0,4.0,75,0.00,,,0.00,11,weatherlink.com 1.10,2014-01-26 23:37:00,
2014-01-26 17:52:00,52.5,45.0,29.91,South,172,1.0,3.0,77,0.00,,,0.00,14,weatherlink.com 1.10,2014-01-26 23:52:00,
2014-01-26 18:07:00,51.7,45.0,29.92,SSE,151,0.0,4.0,79,0.00,,,0.00,14,weatherlink.com 1.10,2014-01-27 00:07:00,
2014-01-26 18:22:00,51.3,45.0,29.92,SSE,151,1.0,3.0,80,0.00,,,0.00,12,weatherlink.com 1.10,2014-01-27 00:22:00,
2014-01-26 18:37:00,50.6,45.0,29.92,SSE,150,0.0,1.0,81,0.00,,,0.00,12,weatherlink.com 1.10,2014-01-27 00:37:00,
2014-01-26 18:52:00,50.1,45.0,29.92,SSE,150,0.0,2.0,82,0.00,,,0.00,14,weatherlink.com 1.10,2014-01-27 00:52:00,
2014-01-26 19:07:00,50.3,45.0,29.92,SSE,150,0.0,3.0,81,0.00,,,0.00,12,weatherlink.com 1.10,2014-01-27 01:07:00,
2014-01-26 19:22:00,50.6,45.0,29.92,SSE,151,2.0,3.0,82,0.00,,,0.00,12,weatherlink.com 1.10,2014-01-27 01:22:00,
2014-01-26 19:37:00,50.8,45.0,29.92,SSE,155,1.0,4.0,81,0.00,,,0.00,12,weatherlink.com 1.10,2014-01-27 01:37:00,
2014-01-26 19:52:00,50.6,45.0,29.92,SW,214,2.0,4.0,82,0.00,,,0.00,12,weatherlink.com 1.10,2014-01-27 01:52:00,
2014-01-26 20:07:00,50.5,46.0,29.92,SW,214,1.0,4.0,83,0.00,,,0.00,12,weatherlink.com 1.10,2014-01-27 02:07:00,
2014-01-26 20:22:00,50.3,46.0,29.93,SSW,213,1.0,5.0,84,0.00,,,0.00,12,weatherlink.com 1.10,2014-01-27 02:22:00,
2014-01-26 20:37:00,50.0,45.0,29.93,SSW,213,2.0,2.0,84,0.00,,,0.00,12,weatherlink.com 1.10,2014-01-27 02:37:00,
2014-01-26 20:52:00,49.8,46.0,29.94,SSW,213,1.0,3.0,85,0.00,,,0.00,12,weatherlink.com 1.10,2014-01-27 02:52:00,
2014-01-26 21:07:00,49.8,46.0,29.94,SSW,213,1.0,4.0,86,0.00,,,0.00,12,weatherlink.com 1.10,2014-01-27 03:07:00,
2014-01-26 21:22:00,49.8,46.0,29.94,SSW,213,0.0,1.0,86,0.00,,,0.00,12,weatherlink.com 1.10,2014-01-27 03:22:00,
2014-01-26 21:37:00,49.9,46.0,29.94,SSW,213,1.0,2.0,87,0.00,,,0.00,12,weatherlink.com 1.10,2014-01-27 03:37:00,
2014-01-26 21:52:00,50.1,46.0,29.94,SSW,213,0.0,2.0,87,0.00,,,0.00,14,weatherlink.com 1.10,2014-01-27 03:52:00,
2014-01-26 22:07:00,50.4,47.0,29.93,SSW,213,0.0,2.0,87,0.00,,,0.00,12,weatherlink.com 1.10,2014-01-27 04:07:00,
2014-01-26 22:22:00,50.6,47.0,29.93,SSW,213,0.0,2.0,88,0.00,,,0.00,12,weatherlink.com 1.10,2014-01-27 04:22:00,
2014-01-26 22:37:00,50.9,48.0,29.92,SSW,213,2.0,3.0,89,0.00,,,0.00,12,weatherlink.com 1.10,2014-01-27 04:37:00,
2014-01-26 22:52:00,51.2,48.0,29.93,SSW,213,0.0,2.0,88,0.00,,,0.00,12,weatherlink.com 1.10,2014-01-27 04:52:00,
2014-01-26 23:08:00,51.0,48.0,29.93,SSW,213,2.0,2.0,88,0.00,,,0.00,14,weatherlink.com 1.10,2014-01-27 05:08:00,
2014-01-26 23:22:00,51.1,48.0,29.92,SSW,213,3.0,4.0,89,0.00,,,0.00,14,weatherlink.com 1.10,2014-01-27 05:22:00,
2014-01-26 23:37:00,51.8,49.0,29.92,SSW,213,2.0,3.0,91,0.00,,,0.00,12,weatherlink.com 1.10,2014-01-27 05:37:00,
2014-01-26 23:52:00,52.8,51.0,29.92,SSW,213,1.0,4.0,92,0.00,,,0.00,12,weatherlink.com 1.10,2014-01-27 05:52:00,